sensor_id;sensor_type;location;lat;lon;timestamp;P1;durP1;ratioP1;P2;durP2;ratioP2
12844;SDS011;68700;48.534;9.196;2023-05-25T00:00:14;7.13;;;2.67;;
12844;SDS011;68700;48.534;9.196;2023-05-25T00:03:37;9.07;;;2.77;;
12844;SDS011;68700;48.534;9.196;2023-05-25T00:07:00;4.23;;;2.47;;
12844;SDS011;68700;48.534;9.196;2023-05-25T00:10:22;8.13;;;2.43;;
12844;SDS011;68700;48.534;9.196;2023-05-25T00:13:43;6.67;;;2.63;;
12844;SDS011;68700;48.534;9.196;2023-05-25T00:17:07;5.30;;;2.50;;
12844;SDS011;68700;48.534;9.196;2023-05-25T00:20:29;5.43;;;2.40;;
12844;SDS011;68700;48.534;9.196;2023-05-25T00:23:52;6.17;;;2.70;;
12844;SDS011;68700;48.534;9.196;2023-05-25T00:27:14;7.40;;;2.87;;
12844;SDS011;68700;48.534;9.196;2023-05-25T00:30:35;6.40;;;3.13;;
12844;SDS011;68700;48.534;9.196;2023-05-25T00:33:59;5.90;;;2.67;;
12844;SDS011;68700;48.534;9.196;2023-05-25T00:37:21;6.33;;;2.70;;
12844;SDS011;68700;48.534;9.196;2023-05-25T00:40:43;4.07;;;2.20;;
12844;SDS011;68700;48.534;9.196;2023-05-25T00:44:05;9.10;;;2.73;;
12844;SDS011;68700;48.534;9.196;2023-05-25T00:47:27;6.87;;;2.63;;
12844;SDS011;68700;48.534;9.196;2023-05-25T00:50:52;5.77;;;3.10;;
12844;SDS011;68700;48.534;9.196;2023-05-25T00:54:17;8.07;;;2.70;;
12844;SDS011;68700;48.534;9.196;2023-05-25T00:57:39;6.73;;;3.17;;
12844;SDS011;68700;48.534;9.196;2023-05-25T01:01:05;6.30;;;2.83;;
12844;SDS011;68700;48.534;9.196;2023-05-25T01:04:31;5.00;;;2.53;;
12844;SDS011;68700;48.534;9.196;2023-05-25T01:07:58;5.97;;;2.73;;
12844;SDS011;68700;48.534;9.196;2023-05-25T01:11:24;5.40;;;2.80;;
12844;SDS011;68700;48.534;9.196;2023-05-25T01:14:48;6.37;;;3.10;;
12844;SDS011;68700;48.534;9.196;2023-05-25T01:18:13;6.70;;;2.93;;
12844;SDS011;68700;48.534;9.196;2023-05-25T01:21:37;7.87;;;2.80;;
12844;SDS011;68700;48.534;9.196;2023-05-25T01:25:02;8.40;;;3.00;;
12844;SDS011;68700;48.534;9.196;2023-05-25T01:28:29;4.87;;;3.00;;
12844;SDS011;68700;48.534;9.196;2023-05-25T01:31:56;6.87;;;3.10;;
12844;SDS011;68700;48.534;9.196;2023-05-25T01:35:19;5.90;;;2.80;;
12844;SDS011;68700;48.534;9.196;2023-05-25T01:38:43;8.70;;;3.00;;
12844;SDS011;68700;48.534;9.196;2023-05-25T01:42:05;3.43;;;2.50;;
12844;SDS011;68700;48.534;9.196;2023-05-25T01:45:27;8.43;;;3.33;;
12844;SDS011;68700;48.534;9.196;2023-05-25T01:48:54;8.73;;;3.07;;
12844;SDS011;68700;48.534;9.196;2023-05-25T01:52:25;8.57;;;3.17;;
12844;SDS011;68700;48.534;9.196;2023-05-25T01:55:52;5.67;;;2.93;;
12844;SDS011;68700;48.534;9.196;2023-05-25T01:59:18;7.50;;;3.03;;
12844;SDS011;68700;48.534;9.196;2023-05-25T02:02:43;5.40;;;2.90;;
12844;SDS011;68700;48.534;9.196;2023-05-25T02:06:07;7.77;;;3.20;;
12844;SDS011;68700;48.534;9.196;2023-05-25T02:09:29;6.83;;;3.07;;
12844;SDS011;68700;48.534;9.196;2023-05-25T02:12:52;6.57;;;3.10;;
12844;SDS011;68700;48.534;9.196;2023-05-25T02:16:14;5.97;;;3.03;;
12844;SDS011;68700;48.534;9.196;2023-05-25T02:19:35;5.87;;;3.03;;
12844;SDS011;68700;48.534;9.196;2023-05-25T02:22:57;7.20;;;3.50;;
12844;SDS011;68700;48.534;9.196;2023-05-25T02:26:19;6.63;;;3.07;;
12844;SDS011;68700;48.534;9.196;2023-05-25T02:29:43;7.70;;;3.67;;
12844;SDS011;68700;48.534;9.196;2023-05-25T02:33:05;8.37;;;3.40;;
12844;SDS011;68700;48.534;9.196;2023-05-25T02:36:27;7.67;;;3.20;;
12844;SDS011;68700;48.534;9.196;2023-05-25T02:39:48;9.07;;;2.90;;
12844;SDS011;68700;48.534;9.196;2023-05-25T02:43:10;5.80;;;3.20;;
12844;SDS011;68700;48.534;9.196;2023-05-25T02:46:33;9.37;;;3.93;;
12844;SDS011;68700;48.534;9.196;2023-05-25T02:49:55;6.93;;;3.70;;
12844;SDS011;68700;48.534;9.196;2023-05-25T02:53:17;8.03;;;3.23;;
12844;SDS011;68700;48.534;9.196;2023-05-25T02:56:39;4.30;;;3.23;;
12844;SDS011;68700;48.534;9.196;2023-05-25T03:00:01;7.87;;;3.63;;
12844;SDS011;68700;48.534;9.196;2023-05-25T03:03:27;6.57;;;3.40;;
12844;SDS011;68700;48.534;9.196;2023-05-25T03:06:49;8.43;;;3.63;;
12844;SDS011;68700;48.534;9.196;2023-05-25T03:10:10;6.47;;;4.00;;
12844;SDS011;68700;48.534;9.196;2023-05-25T03:13:32;8.00;;;3.70;;
12844;SDS011;68700;48.534;9.196;2023-05-25T03:16:55;7.47;;;3.83;;
12844;SDS011;68700;48.534;9.196;2023-05-25T03:20:18;6.43;;;3.17;;
12844;SDS011;68700;48.534;9.196;2023-05-25T03:23:43;8.27;;;4.03;;
12844;SDS011;68700;48.534;9.196;2023-05-25T03:27:05;8.87;;;4.43;;
12844;SDS011;68700;48.534;9.196;2023-05-25T03:30:27;6.53;;;3.83;;
12844;SDS011;68700;48.534;9.196;2023-05-25T03:33:50;7.67;;;4.03;;
12844;SDS011;68700;48.534;9.196;2023-05-25T03:37:13;9.03;;;4.07;;
12844;SDS011;68700;48.534;9.196;2023-05-25T03:40:35;9.90;;;4.23;;
12844;SDS011;68700;48.534;9.196;2023-05-25T03:43:57;6.67;;;3.53;;
12844;SDS011;68700;48.534;9.196;2023-05-25T03:47:19;8.43;;;4.03;;
12844;SDS011;68700;48.534;9.196;2023-05-25T03:50:41;10.63;;;4.57;;
12844;SDS011;68700;48.534;9.196;2023-05-25T03:54:04;10.00;;;4.70;;
12844;SDS011;68700;48.534;9.196;2023-05-25T03:57:26;8.63;;;4.70;;
12844;SDS011;68700;48.534;9.196;2023-05-25T04:00:48;7.97;;;3.80;;
12844;SDS011;68700;48.534;9.196;2023-05-25T04:04:10;9.10;;;3.90;;
12844;SDS011;68700;48.534;9.196;2023-05-25T04:07:32;6.73;;;3.87;;
12844;SDS011;68700;48.534;9.196;2023-05-25T04:10:57;9.40;;;4.53;;
12844;SDS011;68700;48.534;9.196;2023-05-25T04:14:19;9.77;;;4.73;;
12844;SDS011;68700;48.534;9.196;2023-05-25T04:17:41;6.67;;;4.33;;
12844;SDS011;68700;48.534;9.196;2023-05-25T04:21:03;7.77;;;4.70;;
12844;SDS011;68700;48.534;9.196;2023-05-25T04:24:24;9.90;;;4.80;;
12844;SDS011;68700;48.534;9.196;2023-05-25T04:27:48;10.83;;;4.53;;
12844;SDS011;68700;48.534;9.196;2023-05-25T04:31:10;10.47;;;4.20;;
12844;SDS011;68700;48.534;9.196;2023-05-25T04:34:32;9.63;;;4.37;;
12844;SDS011;68700;48.534;9.196;2023-05-25T04:37:55;12.03;;;4.47;;
12844;SDS011;68700;48.534;9.196;2023-05-25T04:41:19;9.23;;;4.67;;
12844;SDS011;68700;48.534;9.196;2023-05-25T04:44:42;10.43;;;4.93;;
12844;SDS011;68700;48.534;9.196;2023-05-25T04:48:04;8.37;;;5.07;;
12844;SDS011;68700;48.534;9.196;2023-05-25T04:51:26;12.70;;;4.90;;
12844;SDS011;68700;48.534;9.196;2023-05-25T04:54:48;10.53;;;4.87;;
12844;SDS011;68700;48.534;9.196;2023-05-25T04:58:10;9.67;;;4.67;;
12844;SDS011;68700;48.534;9.196;2023-05-25T05:01:33;9.85;;;5.15;;
12844;SDS011;68700;48.534;9.196;2023-05-25T05:04:59;11.23;;;5.10;;
12844;SDS011;68700;48.534;9.196;2023-05-25T05:08:21;11.70;;;5.37;;
12844;SDS011;68700;48.534;9.196;2023-05-25T05:11:43;7.93;;;4.73;;
12844;SDS011;68700;48.534;9.196;2023-05-25T05:15:05;11.90;;;5.53;;
12844;SDS011;68700;48.534;9.196;2023-05-25T05:18:29;8.40;;;4.63;;
12844;SDS011;68700;48.534;9.196;2023-05-25T05:21:51;14.93;;;5.13;;
12844;SDS011;68700;48.534;9.196;2023-05-25T05:25:13;10.00;;;5.17;;
12844;SDS011;68700;48.534;9.196;2023-05-25T05:28:35;8.10;;;5.07;;
12844;SDS011;68700;48.534;9.196;2023-05-25T05:31:57;9.47;;;4.50;;
12844;SDS011;68700;48.534;9.196;2023-05-25T05:35:20;7.83;;;4.93;;
12844;SDS011;68700;48.534;9.196;2023-05-25T05:38:42;13.60;;;4.83;;
12844;SDS011;68700;48.534;9.196;2023-05-25T05:42:05;13.23;;;5.30;;
12844;SDS011;68700;48.534;9.196;2023-05-25T05:45:28;9.47;;;4.97;;
12844;SDS011;68700;48.534;9.196;2023-05-25T05:48:50;9.97;;;5.10;;
12844;SDS011;68700;48.534;9.196;2023-05-25T05:52:13;17.33;;;5.40;;
12844;SDS011;68700;48.534;9.196;2023-05-25T05:55:35;11.50;;;5.77;;
12844;SDS011;68700;48.534;9.196;2023-05-25T05:58:57;12.53;;;5.13;;
12844;SDS011;68700;48.534;9.196;2023-05-25T06:02:19;11.77;;;4.90;;
12844;SDS011;68700;48.534;9.196;2023-05-25T06:05:41;10.70;;;5.30;;
12844;SDS011;68700;48.534;9.196;2023-05-25T06:09:04;9.23;;;5.20;;
12844;SDS011;68700;48.534;9.196;2023-05-25T06:12:26;14.00;;;5.53;;
12844;SDS011;68700;48.534;9.196;2023-05-25T06:15:47;9.70;;;4.80;;
12844;SDS011;68700;48.534;9.196;2023-05-25T06:19:09;9.50;;;5.20;;
12844;SDS011;68700;48.534;9.196;2023-05-25T06:22:32;13.40;;;5.53;;
12844;SDS011;68700;48.534;9.196;2023-05-25T06:25:56;10.17;;;5.10;;
12844;SDS011;68700;48.534;9.196;2023-05-25T06:29:18;10.13;;;5.30;;
12844;SDS011;68700;48.534;9.196;2023-05-25T06:32:40;11.07;;;4.97;;
12844;SDS011;68700;48.534;9.196;2023-05-25T06:36:02;13.90;;;5.37;;
12844;SDS011;68700;48.534;9.196;2023-05-25T06:39:24;10.97;;;5.30;;
12844;SDS011;68700;48.534;9.196;2023-05-25T06:42:47;11.10;;;5.23;;
12844;SDS011;68700;48.534;9.196;2023-05-25T06:46:09;11.17;;;5.83;;
12844;SDS011;68700;48.534;9.196;2023-05-25T06:49:36;10.27;;;5.20;;
12844;SDS011;68700;48.534;9.196;2023-05-25T06:52:58;9.77;;;5.43;;
12844;SDS011;68700;48.534;9.196;2023-05-25T06:56:20;10.13;;;5.77;;
12844;SDS011;68700;48.534;9.196;2023-05-25T06:59:44;9.63;;;5.90;;
12844;SDS011;68700;48.534;9.196;2023-05-25T07:03:06;13.90;;;5.97;;
12844;SDS011;68700;48.534;9.196;2023-05-25T07:06:27;11.43;;;5.13;;
12844;SDS011;68700;48.534;9.196;2023-05-25T07:09:49;10.63;;;5.43;;
12844;SDS011;68700;48.534;9.196;2023-05-25T07:13:12;10.23;;;4.90;;
12844;SDS011;68700;48.534;9.196;2023-05-25T07:16:37;12.10;;;5.27;;
12844;SDS011;68700;48.534;9.196;2023-05-25T07:19:59;11.50;;;5.70;;
12844;SDS011;68700;48.534;9.196;2023-05-25T07:23:21;11.70;;;5.70;;
12844;SDS011;68700;48.534;9.196;2023-05-25T07:26:43;10.90;;;5.50;;
12844;SDS011;68700;48.534;9.196;2023-05-25T07:30:05;14.47;;;5.80;;
12844;SDS011;68700;48.534;9.196;2023-05-25T07:33:29;14.43;;;6.00;;
12844;SDS011;68700;48.534;9.196;2023-05-25T07:36:51;13.10;;;5.83;;
12844;SDS011;68700;48.534;9.196;2023-05-25T07:40:13;11.90;;;6.27;;
12844;SDS011;68700;48.534;9.196;2023-05-25T07:43:35;10.87;;;5.97;;
12844;SDS011;68700;48.534;9.196;2023-05-25T07:46:56;12.13;;;6.13;;
12844;SDS011;68700;48.534;9.196;2023-05-25T07:50:20;12.87;;;5.80;;
12844;SDS011;68700;48.534;9.196;2023-05-25T07:53:42;9.33;;;5.87;;
12844;SDS011;68700;48.534;9.196;2023-05-25T07:57:04;12.40;;;6.00;;
12844;SDS011;68700;48.534;9.196;2023-05-25T08:00:27;9.40;;;5.70;;
12844;SDS011;68700;48.534;9.196;2023-05-25T08:03:48;9.80;;;6.13;;
12844;SDS011;68700;48.534;9.196;2023-05-25T08:07:12;10.43;;;6.50;;
12844;SDS011;68700;48.534;9.196;2023-05-25T08:10:33;10.67;;;6.10;;
12844;SDS011;68700;48.534;9.196;2023-05-25T08:13:55;9.73;;;6.37;;
12844;SDS011;68700;48.534;9.196;2023-05-25T08:17:19;15.90;;;6.80;;
12844;SDS011;68700;48.534;9.196;2023-05-25T08:20:41;11.33;;;6.13;;
12844;SDS011;68700;48.534;9.196;2023-05-25T08:24:04;9.00;;;5.97;;
12844;SDS011;68700;48.534;9.196;2023-05-25T08:27:27;12.67;;;6.10;;
12844;SDS011;68700;48.534;9.196;2023-05-25T08:30:49;10.07;;;6.10;;
12844;SDS011;68700;48.534;9.196;2023-05-25T08:34:11;10.97;;;6.30;;
12844;SDS011;68700;48.534;9.196;2023-05-25T08:37:32;12.10;;;6.83;;
12844;SDS011;68700;48.534;9.196;2023-05-25T08:40:59;11.23;;;6.13;;
12844;SDS011;68700;48.534;9.196;2023-05-25T08:44:25;11.57;;;6.80;;
12844;SDS011;68700;48.534;9.196;2023-05-25T08:47:48;9.87;;;6.50;;
12844;SDS011;68700;48.534;9.196;2023-05-25T08:51:14;11.17;;;6.50;;
12844;SDS011;68700;48.534;9.196;2023-05-25T08:54:37;12.20;;;7.03;;
12844;SDS011;68700;48.534;9.196;2023-05-25T08:58:05;11.17;;;7.57;;
12844;SDS011;68700;48.534;9.196;2023-05-25T09:01:32;11.93;;;6.83;;
12844;SDS011;68700;48.534;9.196;2023-05-25T09:04:59;10.83;;;6.77;;
12844;SDS011;68700;48.534;9.196;2023-05-25T09:08:21;12.63;;;6.90;;
12844;SDS011;68700;48.534;9.196;2023-05-25T09:11:44;10.63;;;7.10;;
12844;SDS011;68700;48.534;9.196;2023-05-25T09:15:09;9.37;;;6.80;;
12844;SDS011;68700;48.534;9.196;2023-05-25T09:18:31;12.47;;;7.53;;
12844;SDS011;68700;48.534;9.196;2023-05-25T09:21:53;11.47;;;7.23;;
12844;SDS011;68700;48.534;9.196;2023-05-25T09:25:16;11.17;;;7.10;;
12844;SDS011;68700;48.534;9.196;2023-05-25T09:28:43;9.67;;;7.13;;
12844;SDS011;68700;48.534;9.196;2023-05-25T09:32:08;8.20;;;6.93;;
12844;SDS011;68700;48.534;9.196;2023-05-25T09:35:30;10.47;;;7.00;;
12844;SDS011;68700;48.534;9.196;2023-05-25T09:38:52;13.97;;;7.00;;
12844;SDS011;68700;48.534;9.196;2023-05-25T09:42:15;10.97;;;7.40;;
12844;SDS011;68700;48.534;9.196;2023-05-25T09:45:37;10.23;;;7.10;;
12844;SDS011;68700;48.534;9.196;2023-05-25T09:49:00;10.13;;;7.40;;
12844;SDS011;68700;48.534;9.196;2023-05-25T09:52:23;12.37;;;7.40;;
12844;SDS011;68700;48.534;9.196;2023-05-25T09:55:47;11.20;;;7.37;;
12844;SDS011;68700;48.534;9.196;2023-05-25T09:59:10;10.37;;;6.87;;
12844;SDS011;68700;48.534;9.196;2023-05-25T10:02:32;9.03;;;6.80;;
12844;SDS011;68700;48.534;9.196;2023-05-25T10:05:55;12.33;;;7.53;;
12844;SDS011;68700;48.534;9.196;2023-05-25T10:09:18;10.77;;;7.67;;
12844;SDS011;68700;48.534;9.196;2023-05-25T10:12:41;10.13;;;7.40;;
12844;SDS011;68700;48.534;9.196;2023-05-25T10:16:04;10.17;;;7.10;;
12844;SDS011;68700;48.534;9.196;2023-05-25T10:19:30;10.10;;;7.00;;
12844;SDS011;68700;48.534;9.196;2023-05-25T10:22:59;9.93;;;6.87;;
12844;SDS011;68700;48.534;9.196;2023-05-25T10:26:25;10.47;;;6.87;;
12844;SDS011;68700;48.534;9.196;2023-05-25T10:29:50;10.73;;;7.10;;
12844;SDS011;68700;48.534;9.196;2023-05-25T10:33:12;11.23;;;7.13;;
12844;SDS011;68700;48.534;9.196;2023-05-25T10:36:34;8.33;;;6.93;;
12844;SDS011;68700;48.534;9.196;2023-05-25T10:39:59;7.67;;;6.40;;
12844;SDS011;68700;48.534;9.196;2023-05-25T10:43:22;10.87;;;7.73;;
12844;SDS011;68700;48.534;9.196;2023-05-25T10:46:44;9.10;;;6.90;;
12844;SDS011;68700;48.534;9.196;2023-05-25T10:50:08;8.93;;;7.00;;
12844;SDS011;68700;48.534;9.196;2023-05-25T10:53:42;9.37;;;6.30;;
12844;SDS011;68700;48.534;9.196;2023-05-25T10:57:09;10.10;;;6.20;;
12844;SDS011;68700;48.534;9.196;2023-05-25T11:00:33;8.33;;;6.30;;
12844;SDS011;68700;48.534;9.196;2023-05-25T11:03:55;10.63;;;6.90;;
12844;SDS011;68700;48.534;9.196;2023-05-25T11:07:33;8.47;;;6.63;;
12844;SDS011;68700;48.534;9.196;2023-05-25T11:11:13;9.20;;;6.47;;
12844;SDS011;68700;48.534;9.196;2023-05-25T11:14:36;10.80;;;6.40;;
12844;SDS011;68700;48.534;9.196;2023-05-25T11:18:01;7.77;;;6.27;;
12844;SDS011;68700;48.534;9.196;2023-05-25T11:29:10;8.97;;;6.80;;
12844;SDS011;68700;48.534;9.196;2023-05-25T11:32:34;8.87;;;6.27;;
12844;SDS011;68700;48.534;9.196;2023-05-25T11:36:00;7.67;;;6.47;;
12844;SDS011;68700;48.534;9.196;2023-05-25T11:39:23;10.00;;;6.07;;
12844;SDS011;68700;48.534;9.196;2023-05-25T11:42:45;7.50;;;6.00;;
12844;SDS011;68700;48.534;9.196;2023-05-25T11:46:08;9.60;;;6.23;;
12844;SDS011;68700;48.534;9.196;2023-05-25T11:49:31;7.77;;;5.87;;
12844;SDS011;68700;48.534;9.196;2023-05-25T11:52:53;9.33;;;6.23;;
12844;SDS011;68700;48.534;9.196;2023-05-25T11:56:15;11.07;;;6.80;;
12844;SDS011;68700;48.534;9.196;2023-05-25T11:59:38;10.50;;;6.13;;
12844;SDS011;68700;48.534;9.196;2023-05-25T12:03:00;9.57;;;6.63;;
12844;SDS011;68700;48.534;9.196;2023-05-25T12:06:24;8.43;;;6.23;;
12844;SDS011;68700;48.534;9.196;2023-05-25T12:09:47;8.17;;;6.40;;
12844;SDS011;68700;48.534;9.196;2023-05-25T12:13:09;6.97;;;5.43;;
12844;SDS011;68700;48.534;9.196;2023-05-25T12:16:33;8.07;;;6.07;;
12844;SDS011;68700;48.534;9.196;2023-05-25T12:19:57;9.17;;;6.70;;
12844;SDS011;68700;48.534;9.196;2023-05-25T12:23:21;10.97;;;6.27;;
12844;SDS011;68700;48.534;9.196;2023-05-25T12:26:46;8.73;;;5.63;;
12844;SDS011;68700;48.534;9.196;2023-05-25T12:30:09;11.13;;;6.40;;
12844;SDS011;68700;48.534;9.196;2023-05-25T12:33:31;8.80;;;6.60;;
12844;SDS011;68700;48.534;9.196;2023-05-25T12:36:54;8.07;;;5.87;;
12844;SDS011;68700;48.534;9.196;2023-05-25T12:40:21;8.80;;;6.03;;
12844;SDS011;68700;48.534;9.196;2023-05-25T12:43:43;10.13;;;6.33;;
12844;SDS011;68700;48.534;9.196;2023-05-25T12:47:08;9.73;;;5.90;;
12844;SDS011;68700;48.534;9.196;2023-05-25T12:50:31;7.67;;;6.17;;
12844;SDS011;68700;48.534;9.196;2023-05-25T12:53:53;9.57;;;6.27;;
12844;SDS011;68700;48.534;9.196;2023-05-25T12:57:19;9.80;;;6.63;;
12844;SDS011;68700;48.534;9.196;2023-05-25T13:00:40;8.93;;;6.40;;
12844;SDS011;68700;48.534;9.196;2023-05-25T13:04:02;11.00;;;6.57;;
12844;SDS011;68700;48.534;9.196;2023-05-25T13:07:24;9.77;;;6.87;;
12844;SDS011;68700;48.534;9.196;2023-05-25T13:10:47;8.23;;;6.30;;
12844;SDS011;68700;48.534;9.196;2023-05-25T13:14:12;8.97;;;6.03;;
12844;SDS011;68700;48.534;9.196;2023-05-25T13:17:34;9.23;;;6.40;;
12844;SDS011;68700;48.534;9.196;2023-05-25T13:20:56;12.47;;;6.27;;
12844;SDS011;68700;48.534;9.196;2023-05-25T13:24:18;6.00;;;5.23;;
12844;SDS011;68700;48.534;9.196;2023-05-25T13:27:41;10.27;;;6.23;;
12844;SDS011;68700;48.534;9.196;2023-05-25T13:31:06;7.60;;;6.20;;
12844;SDS011;68700;48.534;9.196;2023-05-25T13:34:27;9.47;;;5.83;;
12844;SDS011;68700;48.534;9.196;2023-05-25T13:37:49;11.20;;;6.30;;
12844;SDS011;68700;48.534;9.196;2023-05-25T13:41:11;8.97;;;5.17;;
12844;SDS011;68700;48.534;9.196;2023-05-25T13:44:33;9.27;;;5.90;;
12844;SDS011;68700;48.534;9.196;2023-05-25T13:47:57;7.93;;;5.37;;
12844;SDS011;68700;48.534;9.196;2023-05-25T13:51:18;8.77;;;5.73;;
12844;SDS011;68700;48.534;9.196;2023-05-25T13:54:40;9.30;;;5.80;;
12844;SDS011;68700;48.534;9.196;2023-05-25T13:58:02;6.68;;;5.03;;
12844;SDS011;68700;48.534;9.196;2023-05-25T14:01:24;6.82;;;5.75;;
12844;SDS011;68700;48.534;9.196;2023-05-25T14:04:48;9.02;;;5.72;;
12844;SDS011;68700;48.534;9.196;2023-05-25T14:08:10;8.70;;;5.32;;
12844;SDS011;68700;48.534;9.196;2023-05-25T14:11:32;6.78;;;5.88;;
12844;SDS011;68700;48.534;9.196;2023-05-25T14:14:54;8.20;;;5.07;;
12844;SDS011;68700;48.534;9.196;2023-05-25T14:18:16;9.20;;;6.25;;
12844;SDS011;68700;48.534;9.196;2023-05-25T14:21:39;7.80;;;5.33;;
12844;SDS011;68700;48.534;9.196;2023-05-25T14:25:02;8.82;;;5.50;;
12844;SDS011;68700;48.534;9.196;2023-05-25T14:28:24;7.55;;;5.10;;
12844;SDS011;68700;48.534;9.196;2023-05-25T14:31:46;8.70;;;5.20;;
12844;SDS011;68700;48.534;9.196;2023-05-25T14:35:08;6.40;;;4.80;;
12844;SDS011;68700;48.534;9.196;2023-05-25T14:38:31;7.20;;;4.95;;
12844;SDS011;68700;48.534;9.196;2023-05-25T14:41:53;7.38;;;4.45;;
12844;SDS011;68700;48.534;9.196;2023-05-25T14:45:15;7.80;;;5.78;;
12844;SDS011;68700;48.534;9.196;2023-05-25T14:48:38;9.37;;;5.43;;
12844;SDS011;68700;48.534;9.196;2023-05-25T14:52:00;6.50;;;4.87;;
12844;SDS011;68700;48.534;9.196;2023-05-25T14:55:23;10.17;;;5.63;;
12844;SDS011;68700;48.534;9.196;2023-05-25T14:58:45;7.97;;;5.40;;
12844;SDS011;68700;48.534;9.196;2023-05-25T15:02:07;9.13;;;5.60;;
12844;SDS011;68700;48.534;9.196;2023-05-25T15:05:29;5.90;;;4.70;;
12844;SDS011;68700;48.534;9.196;2023-05-25T15:08:51;6.07;;;5.13;;
12844;SDS011;68700;48.534;9.196;2023-05-25T15:12:14;5.37;;;4.80;;
12844;SDS011;68700;48.534;9.196;2023-05-25T15:15:36;6.67;;;4.90;;
12844;SDS011;68700;48.534;9.196;2023-05-25T15:18:57;9.40;;;5.43;;
12844;SDS011;68700;48.534;9.196;2023-05-25T15:22:19;7.83;;;5.43;;
12844;SDS011;68700;48.534;9.196;2023-05-25T15:25:41;6.97;;;5.50;;
12844;SDS011;68700;48.534;9.196;2023-05-25T15:29:05;7.27;;;4.80;;
12844;SDS011;68700;48.534;9.196;2023-05-25T15:32:26;7.80;;;5.20;;
12844;SDS011;68700;48.534;9.196;2023-05-25T15:35:48;10.60;;;5.37;;
12844;SDS011;68700;48.534;9.196;2023-05-25T15:39:10;7.13;;;5.27;;
12844;SDS011;68700;48.534;9.196;2023-05-25T15:42:33;8.17;;;5.50;;
12844;SDS011;68700;48.534;9.196;2023-05-25T15:45:56;8.03;;;4.90;;
12844;SDS011;68700;48.534;9.196;2023-05-25T15:49:18;6.10;;;5.10;;
12844;SDS011;68700;48.534;9.196;2023-05-25T15:52:40;8.40;;;5.10;;
12844;SDS011;68700;48.534;9.196;2023-05-25T15:56:02;7.07;;;4.83;;
12844;SDS011;68700;48.534;9.196;2023-05-25T15:59:24;8.77;;;5.30;;
12844;SDS011;68700;48.534;9.196;2023-05-25T16:02:47;8.33;;;5.57;;
12844;SDS011;68700;48.534;9.196;2023-05-25T16:06:09;6.93;;;5.33;;
12844;SDS011;68700;48.534;9.196;2023-05-25T16:09:31;8.20;;;5.70;;
12844;SDS011;68700;48.534;9.196;2023-05-25T16:12:53;5.70;;;5.10;;
12844;SDS011;68700;48.534;9.196;2023-05-25T16:16:14;9.57;;;5.17;;
12844;SDS011;68700;48.534;9.196;2023-05-25T16:19:39;6.93;;;5.10;;
12844;SDS011;68700;48.534;9.196;2023-05-25T16:23:01;9.60;;;5.23;;
12844;SDS011;68700;48.534;9.196;2023-05-25T16:26:23;8.90;;;5.43;;
12844;SDS011;68700;48.534;9.196;2023-05-25T16:29:45;8.90;;;5.47;;
12844;SDS011;68700;48.534;9.196;2023-05-25T16:33:07;9.33;;;5.27;;
12844;SDS011;68700;48.534;9.196;2023-05-25T16:36:30;6.70;;;4.70;;
12844;SDS011;68700;48.534;9.196;2023-05-25T16:39:52;8.63;;;5.50;;
12844;SDS011;68700;48.534;9.196;2023-05-25T16:43:14;7.93;;;4.87;;
12844;SDS011;68700;48.534;9.196;2023-05-25T16:46:36;8.57;;;5.43;;
12844;SDS011;68700;48.534;9.196;2023-05-25T16:49:57;14.73;;;5.23;;
12844;SDS011;68700;48.534;9.196;2023-05-25T16:53:21;9.03;;;5.70;;
12844;SDS011;68700;48.534;9.196;2023-05-25T16:56:42;7.97;;;4.80;;
12844;SDS011;68700;48.534;9.196;2023-05-25T17:00:05;7.97;;;4.87;;
12844;SDS011;68700;48.534;9.196;2023-05-25T17:03:27;6.73;;;5.20;;
12844;SDS011;68700;48.534;9.196;2023-05-25T17:06:49;9.60;;;5.40;;
12844;SDS011;68700;48.534;9.196;2023-05-25T17:10:12;6.80;;;5.30;;
12844;SDS011;68700;48.534;9.196;2023-05-25T17:13:34;7.60;;;5.10;;
12844;SDS011;68700;48.534;9.196;2023-05-25T17:16:56;7.23;;;4.73;;
12844;SDS011;68700;48.534;9.196;2023-05-25T17:20:18;8.33;;;5.00;;
12844;SDS011;68700;48.534;9.196;2023-05-25T17:23:40;6.83;;;5.37;;
12844;SDS011;68700;48.534;9.196;2023-05-25T17:27:03;7.37;;;4.90;;
12844;SDS011;68700;48.534;9.196;2023-05-25T17:30:25;8.47;;;5.27;;
12844;SDS011;68700;48.534;9.196;2023-05-25T17:33:47;6.30;;;4.87;;
12844;SDS011;68700;48.534;9.196;2023-05-25T17:37:09;6.73;;;5.00;;
12844;SDS011;68700;48.534;9.196;2023-05-25T17:40:31;6.30;;;4.93;;
12844;SDS011;68700;48.534;9.196;2023-05-25T17:43:54;9.07;;;4.90;;
12844;SDS011;68700;48.534;9.196;2023-05-25T17:47:16;7.47;;;4.70;;
12844;SDS011;68700;48.534;9.196;2023-05-25T17:50:38;7.20;;;4.83;;
12844;SDS011;68700;48.534;9.196;2023-05-25T17:54:00;7.80;;;4.80;;
12844;SDS011;68700;48.534;9.196;2023-05-25T17:57:21;8.00;;;4.93;;
12844;SDS011;68700;48.534;9.196;2023-05-25T18:00:47;12.60;;;5.00;;
12844;SDS011;68700;48.534;9.196;2023-05-25T18:04:09;8.07;;;5.33;;
12844;SDS011;68700;48.534;9.196;2023-05-25T18:07:30;8.23;;;5.37;;
12844;SDS011;68700;48.534;9.196;2023-05-25T18:10:52;7.33;;;4.97;;
12844;SDS011;68700;48.534;9.196;2023-05-25T18:14:14;10.33;;;5.33;;
12844;SDS011;68700;48.534;9.196;2023-05-25T18:17:37;8.57;;;4.90;;
12844;SDS011;68700;48.534;9.196;2023-05-25T18:20:59;6.33;;;4.67;;
12844;SDS011;68700;48.534;9.196;2023-05-25T18:24:21;7.17;;;4.23;;
12844;SDS011;68700;48.534;9.196;2023-05-25T18:27:43;7.40;;;4.53;;
12844;SDS011;68700;48.534;9.196;2023-05-25T18:31:05;7.53;;;4.83;;
12844;SDS011;68700;48.534;9.196;2023-05-25T18:34:29;5.63;;;4.60;;
12844;SDS011;68700;48.534;9.196;2023-05-25T18:37:50;6.33;;;4.47;;
12844;SDS011;68700;48.534;9.196;2023-05-25T18:41:12;6.97;;;4.63;;
12844;SDS011;68700;48.534;9.196;2023-05-25T18:44:34;9.90;;;5.10;;
12844;SDS011;68700;48.534;9.196;2023-05-25T18:47:56;7.93;;;4.73;;
12844;SDS011;68700;48.534;9.196;2023-05-25T18:51:27;5.37;;;4.17;;
12844;SDS011;68700;48.534;9.196;2023-05-25T18:54:49;6.67;;;4.30;;
12844;SDS011;68700;48.534;9.196;2023-05-25T18:58:11;7.30;;;4.93;;
12844;SDS011;68700;48.534;9.196;2023-05-25T19:01:33;5.77;;;4.67;;
12844;SDS011;68700;48.534;9.196;2023-05-25T19:04:55;7.47;;;5.20;;
12844;SDS011;68700;48.534;9.196;2023-05-25T19:08:18;7.93;;;4.70;;
12844;SDS011;68700;48.534;9.196;2023-05-25T19:11:40;6.43;;;4.97;;
12844;SDS011;68700;48.534;9.196;2023-05-25T19:15:02;9.13;;;5.47;;
12844;SDS011;68700;48.534;9.196;2023-05-25T19:18:24;7.37;;;5.13;;
12844;SDS011;68700;48.534;9.196;2023-05-25T19:21:46;8.53;;;5.20;;
12844;SDS011;68700;48.534;9.196;2023-05-25T19:25:09;8.20;;;5.17;;
12844;SDS011;68700;48.534;9.196;2023-05-25T19:28:31;8.80;;;5.33;;
12844;SDS011;68700;48.534;9.196;2023-05-25T19:31:53;7.47;;;4.43;;
12844;SDS011;68700;48.534;9.196;2023-05-25T19:35:14;6.27;;;4.97;;
12844;SDS011;68700;48.534;9.196;2023-05-25T19:38:36;7.30;;;5.00;;
12844;SDS011;68700;48.534;9.196;2023-05-25T19:42:01;6.10;;;4.93;;
12844;SDS011;68700;48.534;9.196;2023-05-25T19:45:23;10.00;;;5.23;;
12844;SDS011;68700;48.534;9.196;2023-05-25T19:48:45;7.63;;;4.50;;
12844;SDS011;68700;48.534;9.196;2023-05-25T19:52:19;6.70;;;5.13;;
12844;SDS011;68700;48.534;9.196;2023-05-25T19:55:43;4.83;;;4.30;;
12844;SDS011;68700;48.534;9.196;2023-05-25T19:59:06;5.47;;;4.23;;
12844;SDS011;68700;48.534;9.196;2023-05-25T20:02:28;6.07;;;4.47;;
12844;SDS011;68700;48.534;9.196;2023-05-25T20:05:50;5.43;;;4.37;;
12844;SDS011;68700;48.534;9.196;2023-05-25T20:09:12;9.40;;;5.43;;
12844;SDS011;68700;48.534;9.196;2023-05-25T20:12:33;5.47;;;4.50;;
12844;SDS011;68700;48.534;9.196;2023-05-25T20:15:57;8.20;;;4.93;;
12844;SDS011;68700;48.534;9.196;2023-05-25T20:19:18;8.80;;;5.13;;
12844;SDS011;68700;48.534;9.196;2023-05-25T20:22:40;8.60;;;5.50;;